Safford, AZ

1:22 PM MST on July 31, 2014 (GMT -0700)
Safford Regional (KSAD) Elev 3176 ft | 32.86 °N, 109.64 °W | Change Station

Current weather conditions updated 31 minutes ago

Clear
Clear
90 °F
Feels Like 88 °F
N
6
Wind Variable Wind from West

Today is forecast to be Cooler than yesterday.

Today
High -- | Low -- °F
--% Chance of Precip.
Yesterday
High -- | Low -- °F
Precip. -- in
5:32 AM 7:18 PM
Waxing Crescent, 20% visible
Pressure 29.88 in
Visibility 10.0 miles
Clouds Clear
Heat Index 88 °F
Dew Point 55 °F
Humidity 30%
Rainfall 0.00 in
Snow Depth Not available.
UV 13 out of 12
Pollen 4.90 out of 12
Air Quality Not available.
Flu Activity Not available.
METAR KSAD 311951Z AUTO 28005KT 10SM CLR 32/13 A3006 RMK AO2 SLP117 T03220128

More Conditions Fewer Conditions

Pressure 29.88 in
Visibility 10.0 miles
Clouds Clear
Heat Index 88 °F
Dew Point 55 °F
Humidity 30%
Rainfall 0.00 in
Snow Depth Not available.
UV 13 out of 12
Pollen 4.90 out of 12
Air Quality Not available.
Flu Activity Not available.
METAR KSAD 311951Z AUTO 28005KT 10SM CLR 32/13 A3006 RMK AO2 SLP117 T03220128

More Conditions Fewer Conditions

10-Day Weather Forecast

Almanac

Astronomy

Jul. 31, 2014 Rise Set
Actual Time 5:32 AM MST 7:18 PM MST
Civil Twilight 5:05 AM MST 7:44 PM MST
Nautical Twilight 4:32 AM MST 8:17 PM MST
Astronomical Twilight 3:57 AM MST 8:51 PM MST
Moon 9:45 AM MST 9:51 PM MST
Length of Visible Light 14h 39m
Length of Day
13h 46m
Tomorrow will be 1m 30s shorter.
Waxing Crescent, 20% of the Moon is Illuminated
Today
Waxing Crescent
Aug 3
First Quarter
Aug 10
Full
Aug 17
Last Quarter
Aug 25
New

Today's Extremes

State Highs State Lows

Community

WunderPhotos

Upload Photos

1,739,446 photos uploaded!

Nearby

Snow Depth

Station Depth Elevation
Beaver Head 1 in 7990 ft
Workman Creek 0 in 6900 ft

Earthquake Activity

City Distance Mag. Time & Date
No recent earthquake activity has been reported nearby.
Minimum magnitude displayed is 2.5.

Coastal Water Temperatures

Place Temperature
No Stations Reporting

Nearby Weather Stations

Station Location Temp. Heat Index Dew Point Humidity Wind Precip. Elev Updated Type
RAWS BLACK HILLS AZ, Fort Thomas, AZ 93 °F 90 °F 51 °F 24% WNW  at  7 mph 0.00 in / hr 3352 ft 12:53 PM MST MADIS
RAWS NOON CREEK AZ, Safford, AZ 80 °F 80 °F 55 °F 43% ENE  at  7 mph 0.00 in / hr 4924 ft 12:37 PM MST MADIS
RAWS GUTHRIE AZ, Morenci, AZ 78 °F 79 °F 55 °F 45% WNW  at  3 mph 0.00 in / hr 6339 ft 12:03 PM MST MADIS
RAWS COLUMBINE AZ, Thatcher, AZ 63 °F - 50 °F 62% WSW  at  2 mph 0.00 in / hr 9521 ft 12:02 PM MST MADIS
MGIO, Safford, AZ 53.3 °F - 49 °F 86% SW  at  0.0 mph 0.04 in / hr 10420 ft 1:21 PM MST Normal

Show More Stations Show Fewer Stations